Time;durP1;ratioP1;P1;durP2;ratioP2;P2;SDS_P1;SDS_P2;PMS_P1;PMS_P2;Temp;Humidity;BMP_temperature;BMP_pressure;BME280_temperature;BME280_humidity;BME280_pressure;Samples;Min_cycle;Max_cycle;Signal;HPM_P1;HPM_P2
2023/03/03 00:00:53;;;;;;;96.67;49.97;;;2.50;99.90;;;1.20;100.00;97529.78;5031065;28;20473;-72
2023/03/03 00:03:24;;;;;;;101.38;51.30;;;2.50;99.90;;;1.17;100.00;97537.94;5030875;28;20845;-73
2023/03/03 00:05:52;;;;;;;108.88;52.42;;;2.50;99.90;;;1.15;100.00;97538.13;5030846;28;20410;-73
2023/03/03 00:08:19;;;;;;;92.90;46.35;;;2.50;99.90;;;1.15;100.00;97534.72;5030961;28;20565;-73
2023/03/03 00:10:46;;;;;;;125.90;58.65;;;2.40;99.90;;;1.15;100.00;97537.31;5030985;28;20422;-72
2023/03/03 00:13:15;;;;;;;123.28;57.33;;;2.50;99.90;;;1.09;100.00;97538.09;5030729;28;20445;-73
2023/03/03 00:15:42;;;;;;;120.63;57.47;;;2.40;99.90;;;1.05;100.00;97536.84;5030732;28;20399;-72
2023/03/03 00:18:21;;;;;;;118.38;55.10;;;2.40;99.90;;;1.00;100.00;97533.97;5030892;28;20403;-73
2023/03/03 00:20:51;;;;;;;112.07;54.53;;;2.30;99.90;;;0.98;100.00;97534.16;5030658;28;25118;-72
2023/03/03 00:23:27;;;;;;;120.32;57.33;;;2.40;99.90;;;0.97;100.00;97529.97;5030273;28;20514;-72
2023/03/03 00:25:54;;;;;;;127.25;61.05;;;2.30;99.90;;;0.95;100.00;97531.94;5029234;28;25156;-72
2023/03/03 00:28:25;;;;;;;120.75;58.03;;;2.30;99.90;;;0.95;100.00;97533.75;5030690;28;20409;-73
2023/03/03 00:30:54;;;;;;;106.38;53.22;;;2.30;99.90;;;0.89;100.00;97534.50;5030721;28;20418;-73
2023/03/03 00:33:28;;;;;;;131.88;60.60;;;2.20;99.90;;;0.93;100.00;97533.13;5030335;28;20903;-72
2023/03/03 00:35:56;;;;;;;136.27;62.50;;;2.20;99.90;;;0.89;100.00;97530.09;5030350;28;20422;-73
2023/03/03 00:38:22;;;;;;;112.13;53.87;;;2.20;99.90;;;0.81;100.00;97524.19;5030583;28;20645;-73
2023/03/03 00:40:48;;;;;;;128.40;61.00;;;2.10;99.90;;;0.78;100.00;97525.38;5030585;28;20872;-74
2023/03/03 00:43:19;;;;;;;125.20;60.45;;;2.10;99.90;;;0.70;100.00;97526.28;5029985;28;20415;-73
2023/03/03 00:45:47;;;;;;;119.00;57.75;;;2.00;99.90;;;0.66;100.00;97521.66;5030394;28;20434;-72
2023/03/03 00:48:25;;;;;;;134.85;61.25;;;2.00;99.90;;;0.68;100.00;97522.25;5030249;28;20461;-73
2023/03/03 00:50:53;;;;;;;119.88;57.80;;;2.00;99.90;;;0.58;100.00;97519.16;5029124;28;20519;-73
2023/03/03 00:53:22;;;;;;;133.93;62.30;;;1.90;99.90;;;0.56;100.00;97521.94;5030171;28;20433;-73
2023/03/03 00:55:51;;;;;;;116.07;57.45;;;1.90;99.90;;;0.46;100.00;97520.59;5030362;28;20473;-73
2023/03/03 00:58:17;;;;;;;116.57;56.63;;;1.80;99.90;;;0.42;100.00;97521.97;5030178;28;20414;-73
2023/03/03 01:00:43;;;;;;;118.57;57.83;;;1.70;99.90;;;0.41;100.00;97522.97;5030235;28;20489;-73
2023/03/03 01:03:13;;;;;;;128.77;61.00;;;1.70;99.90;;;0.43;100.00;97518.38;5029747;28;20418;-73
2023/03/03 01:05:40;;;;;;;111.72;56.33;;;1.70;99.90;;;0.30;100.00;97517.22;5030207;28;20407;-73
2023/03/03 01:08:06;;;;;;;123.80;59.77;;;1.60;99.90;;;0.29;100.00;97513.03;5029892;28;20892;-73
2023/03/03 01:10:38;;;;;;;127.78;62.65;;;1.60;99.90;;;0.26;100.00;97513.41;5030207;28;20410;-73
2023/03/03 01:13:05;;;;;;;150.85;67.80;;;1.60;99.90;;;0.27;100.00;97512.41;5029699;28;20473;-74
2023/03/03 01:15:31;;;;;;;139.55;66.03;;;1.60;99.90;;;0.22;100.00;97506.16;5030023;28;20410;-73
2023/03/03 01:17:57;;;;;;;128.15;61.22;;;1.60;99.90;;;0.20;100.00;97510.72;5028678;28;20852;-73
2023/03/03 01:20:23;;;;;;;128.40;61.45;;;1.50;99.90;;;0.16;100.00;97518.06;5029930;28;20411;-73
2023/03/03 01:22:48;;;;;;;128.38;62.13;;;1.50;99.90;;;0.16;100.00;97515.47;5028287;28;20506;-73
2023/03/03 01:25:14;;;;;;;123.33;58.37;;;1.50;99.90;;;0.13;100.00;97515.84;5028561;28;20414;-73
2023/03/03 01:27:42;;;;;;;131.10;61.90;;;1.50;99.90;;;0.15;100.00;97507.88;5028653;28;20742;-73
2023/03/03 01:30:09;;;;;;;134.63;63.15;;;1.50;99.90;;;0.09;100.00;97513.78;5029931;28;20398;-73
2023/03/03 01:32:35;;;;;;;136.00;61.15;;;1.40;99.90;;;0.07;100.00;97513.16;5029517;28;20482;-74
2023/03/03 01:35:01;;;;;;;129.75;61.33;;;1.40;99.90;;;0.06;100.00;97514.97;5032533;28;20445;-74
2023/03/03 01:37:27;;;;;;;128.90;61.35;;;1.40;99.90;;;0.04;100.00;97519.53;5033727;28;20409;-74
2023/03/03 01:39:54;;;;;;;121.80;56.60;;;1.40;99.90;;;0.06;100.00;97524.56;5033677;28;20415;-74
2023/03/03 01:42:21;;;;;;;127.13;58.37;;;1.40;99.90;;;0.06;100.00;97524.56;5033292;28;20928;-74
2023/03/03 01:44:48;;;;;;;155.88;66.57;;;1.40;99.90;;;0.08;100.00;97519.97;5033524;28;20447;-73
2023/03/03 01:47:16;;;;;;;129.75;59.22;;;1.40;99.90;;;0.00;100.00;97519.06;5033373;28;20399;-73
2023/03/03 01:49:48;;;;;;;141.77;61.75;;;1.40;99.90;;;0.02;100.00;97515.50;5033447;28;20399;-73
2023/03/03 01:52:23;;;;;;;150.98;67.47;;;1.40;99.90;;;0.01;100.00;97512.06;5033309;28;20391;-74
2023/03/03 01:54:53;;;;;;;148.00;64.32;;;1.30;99.90;;;-0.05;100.00;97508.41;5033482;28;20401;-73
2023/03/03 01:57:27;;;;;;;153.27;66.25;;;1.30;99.90;;;-0.05;100.00;97511.00;5033253;28;20407;-75
2023/03/03 01:59:57;;;;;;;136.02;62.58;;;1.30;99.90;;;-0.05;100.00;97515.41;5033478;28;20415;-73
2023/03/03 02:02:26;;;;;;;157.73;68.90;;;1.30;99.90;;;-0.02;100.00;97504.66;5032829;28;20990;-73
2023/03/03 02:04:51;;;;;;;142.18;62.45;;;1.30;99.90;;;-0.03;100.00;97503.03;5033323;28;20399;-73
2023/03/03 02:07:20;;;;;;;158.23;66.40;;;1.30;99.90;;;0.04;100.00;97505.72;5033120;28;20819;-73
2023/03/03 02:09:55;;;;;;;149.15;65.90;;;1.40;99.90;;;0.01;100.00;97499.06;5033249;28;20395;-73
2023/03/03 02:12:30;;;;;;;147.85;66.03;;;1.40;99.90;;;0.01;100.00;97491.25;5032931;28;20895;-73
2023/03/03 02:14:57;;;;;;;147.02;65.20;;;1.40;99.90;;;0.03;100.00;97491.91;5033252;28;20892;-73
2023/03/03 02:17:24;;;;;;;172.77;72.28;;;1.40;99.90;;;0.04;100.00;97490.09;5033030;28;20407;-74
2023/03/03 02:20:01;;;;;;;163.17;70.83;;;1.30;99.90;;;0.03;100.00;97493.69;5033160;28;20410;-74
2023/03/03 02:22:40;;;;;;;157.15;68.18;;;1.40;99.90;;;0.02;100.00;97486.88;5032660;28;20411;-74
2023/03/03 02:25:10;;;;;;;149.57;65.40;;;1.40;99.90;;;-0.01;100.00;97488.06;5032927;28;20399;-74
2023/03/03 02:27:37;;;;;;;140.07;61.10;;;1.40;99.90;;;-0.05;100.00;97485.00;5032729;28;20407;-73
2023/03/03 02:30:17;;;;;;;135.45;59.95;;;1.30;99.90;;;-0.06;100.00;97485.97;5032780;28;20458;-73
2023/03/03 02:32:42;;;;;;;141.25;60.90;;;1.30;99.90;;;-0.08;100.00;97487.16;5032436;28;20780;-73
2023/03/03 02:35:30;;;;;;;157.23;67.33;;;1.30;99.90;;;-0.08;100.00;97497.56;5032848;28;20491;-73
2023/03/03 02:38:06;;;;;;;145.53;64.17;;;1.30;99.90;;;-0.11;100.00;97487.53;5050090;22;20970;-75
2023/03/03 02:40:38;;;;;;;135.13;61.30;;;1.20;99.90;;;-0.17;100.00;97489.06;5032822;28;20400;-74
2023/03/03 02:43:06;;;;;;;145.57;64.30;;;1.20;99.90;;;-0.17;100.00;97486.44;5032410;28;20426;-74
2023/03/03 02:45:32;;;;;;;155.00;66.85;;;1.20;99.90;;;-0.18;100.00;97497.84;5031230;28;20828;-74
2023/03/03 02:47:58;;;;;;;147.83;67.47;;;1.20;99.90;;;-0.16;100.00;97498.47;5032599;28;20407;-74
2023/03/03 02:50:23;;;;;;;135.38;59.67;;;1.20;99.90;;;-0.12;100.00;97494.50;5032406;28;20411;-75
2023/03/03 02:52:49;;;;;;;142.27;63.63;;;1.20;99.90;;;-0.07;100.00;97497.38;5032171;28;20492;-75
2023/03/03 02:55:15;;;;;;;137.90;60.47;;;1.30;99.90;;;0.00;100.00;97500.09;5032526;28;20807;-74
2023/03/03 02:57:41;;;;;;;145.93;64.22;;;1.40;99.90;;;0.06;100.00;97504.56;5032325;28;20407;-74
2023/03/03 03:00:10;;;;;;;150.77;65.57;;;1.40;99.90;;;0.11;100.00;97502.19;5032282;28;20874;-74
2023/03/03 03:02:36;;;;;;;133.75;61.15;;;1.40;99.90;;;0.14;100.00;97503.66;5031713;28;20418;-74
2023/03/03 03:05:02;;;;;;;123.23;57.37;;;1.40;99.90;;;0.22;100.00;97506.97;5032248;28;20790;-74
2023/03/03 03:07:28;;;;;;;129.45;58.63;;;1.50;99.90;;;0.29;100.00;97502.63;5032081;28;20860;-75
2023/03/03 03:09:55;;;;;;;137.03;61.60;;;1.60;99.90;;;0.35;100.00;97509.69;5032104;28;20439;-74
2023/03/03 03:12:20;;;;;;;129.63;58.00;;;1.70;99.90;;;0.43;100.00;97510.56;5030464;28;20403;-74
2023/03/03 03:14:47;;;;;;;133.13;60.08;;;1.70;99.90;;;0.49;100.00;97509.84;5031975;28;20954;-74
2023/03/03 03:17:14;;;;;;;145.88;64.38;;;1.80;99.90;;;0.52;100.00;97501.66;5031952;28;20919;-74
2023/03/03 03:19:40;;;;;;;115.60;55.47;;;1.80;99.90;;;0.58;100.00;97504.34;5030632;28;20403;-74
2023/03/03 03:22:06;;;;;;;125.70;57.40;;;1.90;99.90;;;0.66;100.00;97504.22;5031532;28;20478;-73
2023/03/03 03:24:32;;;;;;;122.38;54.75;;;1.90;99.90;;;0.74;100.00;97498.09;5031834;28;20464;-73
2023/03/03 03:26:57;;;;;;;133.20;59.10;;;2.00;99.90;;;0.83;100.00;97509.19;5031739;28;20406;-73
2023/03/03 03:29:23;;;;;;;128.48;57.85;;;2.10;99.90;;;0.86;100.00;97501.78;5031756;28;20430;-73
2023/03/03 03:31:49;;;;;;;137.13;60.28;;;2.10;99.90;;;0.91;100.00;97507.25;5031413;28;20407;-73
2023/03/03 03:34:17;;;;;;;136.90;62.22;;;2.20;99.90;;;0.92;100.00;97508.03;5031575;28;20486;-73
2023/03/03 03:36:45;;;;;;;126.25;56.78;;;2.20;99.90;;;0.98;100.00;97500.28;5031300;28;20428;-74
2023/03/03 03:39:11;;;;;;;142.25;61.53;;;2.20;99.90;;;1.02;100.00;97505.94;5031544;28;20540;-74
2023/03/03 03:41:37;;;;;;;137.43;61.03;;;2.30;99.90;;;1.06;100.00;97492.34;5031086;28;20411;-73
2023/03/03 03:44:03;;;;;;;165.55;69.57;;;2.30;99.90;;;1.10;100.00;97496.19;5031389;28;20403;-74
2023/03/03 03:46:29;;;;;;;146.77;63.30;;;2.40;99.90;;;1.17;100.00;97501.47;5031382;28;20426;-74
2023/03/03 03:48:55;;;;;;;130.15;59.17;;;2.40;99.90;;;1.24;100.00;97507.53;5031376;28;20819;-74
2023/03/03 03:51:22;;;;;;;144.43;62.53;;;2.50;99.90;;;1.28;100.00;97506.13;5031099;28;20498;-74
2023/03/03 03:53:48;;;;;;;134.57;58.78;;;2.50;99.90;;;1.31;100.00;97504.97;5031169;28;20885;-74
2023/03/03 03:56:15;;;;;;;130.77;58.17;;;2.60;99.90;;;1.33;100.00;97511.63;5030853;28;20410;-74
2023/03/03 03:58:41;;;;;;;137.98;58.42;;;2.60;99.90;;;1.36;100.00;97500.78;5031036;28;20896;-74
2023/03/03 04:01:07;;;;;;;136.45;60.60;;;2.60;99.90;;;1.36;100.00;97506.00;5030940;28;20405;-74
2023/03/03 04:03:33;;;;;;;126.65;57.53;;;2.60;99.90;;;1.36;100.00;97498.19;5030959;28;20423;-74
2023/03/03 04:05:59;;;;;;;136.18;60.28;;;2.60;99.90;;;1.36;100.00;97500.78;5031047;28;20414;-74
2023/03/03 04:08:26;;;;;;;133.55;58.03;;;2.60;99.90;;;1.37;100.00;97493.78;5031059;28;20411;-73
2023/03/03 04:10:52;;;;;;;134.50;58.25;;;2.60;99.90;;;1.39;100.00;97494.41;5030803;28;20400;-73
2023/03/03 04:13:18;;;;;;;126.82;54.90;;;2.60;99.90;;;1.43;100.00;97506.84;5030691;28;20403;-73
2023/03/03 04:15:44;;;;;;;154.82;66.80;;;2.70;99.90;;;1.45;100.00;97504.06;5030775;28;20817;-74
2023/03/03 04:18:10;;;;;;;149.98;64.90;;;2.70;99.90;;;1.49;100.00;97502.69;5031107;28;20502;-73
2023/03/03 04:20:38;;;;;;;145.90;62.42;;;2.70;99.90;;;1.50;100.00;97502.47;5030902;28;20459;-72
2023/03/03 04:23:04;;;;;;;136.63;62.00;;;2.70;99.90;;;1.52;100.00;97505.72;5030525;28;20481;-73
2023/03/03 04:25:31;;;;;;;136.57;61.75;;;2.70;99.90;;;1.54;100.00;97511.56;5030419;28;20451;-73
2023/03/03 04:27:57;;;;;;;150.70;66.00;;;2.70;99.90;;;1.57;100.00;97506.97;5030638;28;20405;-73
2023/03/03 04:30:23;;;;;;;147.43;65.22;;;2.80;99.90;;;1.61;100.00;97514.22;5030644;28;20494;-73
2023/03/03 04:32:49;;;;;;;140.95;62.22;;;2.80;99.90;;;1.67;100.00;97515.25;5030427;28;20877;-74
2023/03/03 04:35:15;;;;;;;156.50;67.75;;;2.90;99.90;;;1.66;100.00;97518.84;5030689;28;20399;-73
2023/03/03 04:37:41;;;;;;;137.75;61.65;;;2.90;99.90;;;1.68;100.00;97519.47;5030202;28;20407;-73
2023/03/03 04:40:09;;;;;;;147.57;64.05;;;2.90;99.90;;;1.69;100.00;97518.47;5030469;28;20403;-73
2023/03/03 04:42:36;;;;;;;136.68;59.22;;;2.90;99.90;;;1.71;100.00;97514.69;5030080;28;20829;-73
2023/03/03 04:45:04;;;;;;;154.93;67.43;;;2.90;99.90;;;1.71;100.00;97516.47;5030369;28;20400;-73
2023/03/03 04:47:31;;;;;;;143.32;64.38;;;2.90;99.90;;;1.71;100.00;97519.91;5029600;28;20915;-73
2023/03/03 04:49:57;;;;;;;144.27;61.97;;;2.90;99.90;;;1.72;100.00;97525.94;5029278;28;20407;-74
2023/03/03 04:52:23;;;;;;;137.35;62.10;;;2.90;99.90;;;1.73;100.00;97525.72;5029357;28;20965;-72
2023/03/03 04:54:48;;;;;;;147.38;63.60;;;3.00;99.90;;;1.76;100.00;97525.34;5029531;28;20829;-72
2023/03/03 04:57:14;;;;;;;138.80;61.78;;;3.00;99.90;;;1.79;100.00;97534.59;5029171;28;20407;-73
2023/03/03 04:59:42;;;;;;;155.03;66.07;;;3.00;99.90;;;1.79;100.00;97537.22;5029322;28;20407;-73
2023/03/03 05:02:08;;;;;;;145.37;61.17;;;3.00;99.90;;;1.80;100.00;97538.81;5028829;28;20554;-72
2023/03/03 05:04:33;;;;;;;138.00;62.30;;;3.00;99.90;;;1.80;100.00;97541.44;5029323;28;20908;-72
2023/03/03 05:06:59;;;;;;;157.65;67.43;;;3.00;99.90;;;1.80;100.00;97538.81;5029578;28;20413;-72
2023/03/03 05:09:25;;;;;;;144.17;59.83;;;3.00;99.90;;;1.80;100.00;97537.03;5028315;28;20407;-73
2023/03/03 05:11:51;;;;;;;147.35;63.45;;;3.00;99.90;;;1.80;100.00;97542.25;5029335;28;20422;-73
2023/03/03 05:14:17;;;;;;;158.87;66.80;;;3.00;99.90;;;1.81;100.00;97538.63;5030256;28;20411;-73
2023/03/03 05:16:45;;;;;;;144.35;62.35;;;3.00;99.90;;;1.82;100.00;97534.19;5030129;28;20426;-74
2023/03/03 05:19:10;;;;;;;170.85;71.95;;;3.00;99.90;;;1.79;100.00;97535.41;5030182;28;20404;-74
2023/03/03 05:21:41;;;;;;;148.20;63.97;;;3.00;99.90;;;1.82;100.00;97536.81;5029867;28;20406;-74
2023/03/03 05:24:07;;;;;;;150.50;65.47;;;3.00;99.90;;;1.79;100.00;97539.81;5030050;28;20432;-73
2023/03/03 05:26:33;;;;;;;151.88;64.72;;;3.00;99.90;;;1.79;100.00;97542.44;5029839;28;20414;-74
2023/03/03 05:28:59;;;;;;;152.40;65.75;;;3.00;99.90;;;1.79;100.00;97539.81;5029582;28;20436;-74
2023/03/03 05:31:26;;;;;;;146.25;63.20;;;3.00;99.90;;;1.77;100.00;97532.19;5029677;28;20411;-74
2023/03/03 05:33:53;;;;;;;146.38;63.55;;;3.00;99.90;;;1.78;100.00;97543.41;5028573;28;20469;-74
2023/03/03 05:36:19;;;;;;;167.70;72.23;;;3.00;99.90;;;1.72;100.00;97545.00;5028206;28;20506;-73
2023/03/03 05:38:45;;;;;;;153.00;67.28;;;3.00;99.90;;;1.73;100.00;97533.53;5029933;28;20422;-74
2023/03/03 05:41:11;;;;;;;137.23;61.77;;;3.00;99.90;;;1.78;100.00;97543.41;5029688;28;20421;-73
2023/03/03 05:43:37;;;;;;;156.15;66.53;;;3.00;99.90;;;1.78;100.00;97552.06;5025941;28;20428;-74
2023/03/03 05:46:12;;;;;;;147.82;62.33;;;3.00;99.90;;;1.80;100.00;97546.66;5025770;28;20425;-75
2023/03/03 05:48:41;;;;;;;163.48;68.10;;;3.00;99.90;;;1.78;100.00;97562.50;5023503;28;20392;-74
2023/03/03 05:51:09;;;;;;;159.60;67.50;;;3.00;99.90;;;1.78;100.00;97553.88;5025746;28;20445;-74
2023/03/03 05:53:35;;;;;;;145.68;63.10;;;3.00;99.90;;;1.81;100.00;97564.72;5027847;28;20436;-74
2023/03/03 05:56:02;;;;;;;157.57;65.60;;;3.00;99.90;;;1.82;100.00;97565.50;5025664;28;20923;-73
2023/03/03 05:58:29;;;;;;;169.52;72.40;;;3.10;99.90;;;1.80;100.00;97565.72;5026350;28;20426;-75
2023/03/03 06:00:55;;;;;;;146.27;64.63;;;3.00;99.90;;;1.83;100.00;97561.91;5029377;28;20924;-74
2023/03/03 06:03:21;;;;;;;147.95;65.22;;;3.00;99.90;;;1.83;100.00;97575.78;5028816;28;20430;-75
2023/03/03 06:05:47;;;;;;;149.15;66.05;;;3.00;99.90;;;1.82;100.00;97573.34;5027241;28;20403;-75
2023/03/03 06:08:14;;;;;;;157.50;69.17;;;3.00;99.90;;;1.81;100.00;97576.94;5029594;28;20457;-75
2023/03/03 06:10:40;;;;;;;141.23;61.40;;;3.00;99.90;;;1.81;100.00;97571.72;5029514;28;20427;-74
2023/03/03 06:13:06;;;;;;;137.83;58.80;;;3.00;99.90;;;1.83;100.00;97561.91;5029132;28;20525;-75
2023/03/03 06:15:32;;;;;;;143.05;64.20;;;3.00;99.90;;;1.82;100.00;97573.34;5029385;28;20436;-74
2023/03/03 06:17:58;;;;;;;146.35;64.97;;;3.00;99.90;;;1.81;100.00;97577.75;5029422;28;20407;-74
2023/03/03 06:20:24;;;;;;;143.10;63.67;;;3.00;99.90;;;1.82;100.00;97581.97;5031010;28;20876;-74
2023/03/03 06:22:50;;;;;;;152.85;64.72;;;3.00;99.90;;;1.83;100.00;97583.59;5032578;28;20426;-74
2023/03/03 06:25:17;;;;;;;132.10;58.80;;;3.10;99.90;;;1.86;100.00;97592.88;5032994;28;20403;-74
2023/03/03 06:27:43;;;;;;;150.00;65.65;;;3.10;99.90;;;1.86;100.00;97585.03;5032827;28;20424;-74
2023/03/03 06:30:12;;;;;;;133.15;59.95;;;3.10;99.90;;;1.85;100.00;97588.63;5032152;28;21285;-74
2023/03/03 06:32:38;;;;;;;163.07;69.97;;;3.10;99.90;;;1.84;100.00;97592.25;5032549;28;20923;-74
2023/03/03 06:35:05;;;;;;;153.33;67.07;;;3.10;99.90;;;1.85;100.00;97588.63;5032839;28;20484;-74
2023/03/03 06:37:31;;;;;;;151.30;66.03;;;3.10;99.90;;;1.85;100.00;97601.69;5032689;28;20406;-74
2023/03/03 06:39:57;;;;;;;160.48;65.97;;;3.10;99.90;;;1.85;100.00;97602.50;5032765;28;20406;-74
2023/03/03 06:42:24;;;;;;;142.88;60.15;;;3.10;99.90;;;1.89;100.00;97606.31;5032065;28;20505;-75
2023/03/03 06:44:50;;;;;;;148.48;62.35;;;3.10;99.90;;;1.91;100.00;97606.94;5032493;28;20410;-73
2023/03/03 06:47:16;;;;;;;148.90;64.55;;;3.10;99.90;;;1.91;100.00;97604.34;5032527;28;20406;-74
2023/03/03 06:49:42;;;;;;;158.75;67.30;;;3.10;99.90;;;1.95;100.00;97604.78;5032538;28;20433;-74
2023/03/03 06:52:12;;;;;;;153.23;65.47;;;3.10;99.90;;;1.94;100.00;97605.78;5032151;28;20495;-75
2023/03/03 06:54:39;;;;;;;122.50;58.70;;;3.20;99.90;;;1.94;100.00;97611.81;5032406;28;20457;-74
2023/03/03 06:57:17;;;;;;;125.22;57.90;;;3.10;99.90;;;1.95;100.00;97610.00;5032240;28;20407;-74
2023/03/03 06:59:46;;;;;;;130.85;59.30;;;3.20;99.90;;;1.98;100.00;97617.44;5032436;28;20429;-74
2023/03/03 07:02:16;;;;;;;127.75;54.50;;;3.20;99.90;;;2.02;100.00;97613.47;5031920;28;20412;-75
2023/03/03 07:04:42;;;;;;;121.67;54.17;;;3.20;99.90;;;2.06;100.00;97619.91;5032290;28;20399;-74
2023/03/03 07:07:16;;;;;;;117.18;55.83;;;3.30;99.90;;;2.05;100.00;97620.88;5032145;28;20400;-74
2023/03/03 07:09:44;;;;;;;104.53;51.08;;;3.30;99.90;;;2.07;100.00;97624.13;5032207;28;20918;-74
2023/03/03 07:12:14;;;;;;;109.97;50.13;;;3.30;99.90;;;2.11;100.00;97624.53;5031815;28;20824;-75
2023/03/03 07:14:44;;;;;;;116.03;51.70;;;3.30;99.90;;;2.15;100.00;97623.97;5032574;28;20459;-75
2023/03/03 07:17:17;;;;;;;119.38;53.00;;;3.40;99.90;;;2.18;100.00;97636.63;5032159;28;20859;-75
2023/03/03 07:19:43;;;;;;;123.75;56.55;;;3.40;99.90;;;2.20;100.00;97636.44;5032121;28;20418;-75
2023/03/03 07:22:15;;;;;;;114.88;54.70;;;3.40;99.90;;;2.22;100.00;97635.25;5031529;28;20423;-74
2023/03/03 07:24:44;;;;;;;118.40;53.67;;;3.40;99.90;;;2.26;100.00;97640.91;5031775;28;20909;-74
2023/03/03 07:27:15;;;;;;;121.15;57.13;;;3.50;99.90;;;2.27;100.00;97642.50;5031848;28;20446;-74
2023/03/03 07:29:41;;;;;;;110.57;50.90;;;3.50;99.90;;;2.29;100.00;97633.50;5031849;28;20388;-74
2023/03/03 07:32:27;;;;;;;115.18;56.55;;;3.50;99.90;;;2.32;100.00;97640.16;5030625;28;20417;-74
2023/03/03 07:34:55;;;;;;;117.70;52.30;;;3.50;99.90;;;2.36;100.00;97630.91;5031557;28;25109;-74
2023/03/03 07:37:29;;;;;;;108.38;50.38;;;3.50;99.90;;;2.43;100.00;97633.56;5031498;28;20514;-75
2023/03/03 07:39:56;;;;;;;115.28;53.70;;;3.60;99.90;;;2.47;100.00;97633.00;5031557;28;25114;-75
2023/03/03 07:42:27;;;;;;;105.28;50.65;;;3.60;99.90;;;2.52;100.00;97633.22;5031232;28;20979;-74
2023/03/03 07:44:56;;;;;;;101.57;48.78;;;3.70;99.90;;;2.59;100.00;97643.69;5031563;28;20474;-75
2023/03/03 07:47:26;;;;;;;108.80;50.63;;;3.80;99.90;;;2.66;100.00;97647.16;5031525;28;20410;-74
2023/03/03 07:49:55;;;;;;;97.45;46.53;;;3.80;99.90;;;2.71;100.00;97639.50;5031261;28;20403;-75
2023/03/03 07:52:29;;;;;;;107.18;49.95;;;3.90;99.90;;;2.79;100.00;97634.13;5031268;28;20395;-74
2023/03/03 07:54:57;;;;;;;100.25;49.03;;;3.90;99.90;;;2.86;100.00;97644.59;5031417;28;20812;-74
2023/03/03 07:57:26;;;;;;;98.03;47.45;;;4.00;99.90;;;2.92;100.00;97643.84;5031278;28;20416;-74
2023/03/03 07:59:58;;;;;;;97.40;47.60;;;4.10;99.90;;;2.97;100.00;97646.66;5031282;28;20904;-75
2023/03/03 08:02:39;;;;;;;87.82;44.65;;;4.10;99.90;;;3.05;100.00;97642.06;5030796;28;20776;-74
2023/03/03 08:05:33;;;;;;;93.05;44.92;;;4.20;99.90;;;3.13;100.00;97648.94;5031202;28;20406;-75
2023/03/03 08:08:29;;;;;;;89.57;45.22;;;4.30;99.90;;;3.21;100.00;97659.22;5031154;28;20486;-75
2023/03/03 08:10:57;;;;;;;86.05;44.25;;;4.30;99.90;;;3.31;100.00;97661.44;5030919;28;20544;-75
2023/03/03 08:13:26;;;;;;;88.78;43.92;;;4.40;99.90;;;3.39;100.00;97658.63;5030763;28;20438;-75
2023/03/03 08:15:59;;;;;;;88.80;44.38;;;4.50;99.90;;;3.50;100.00;97660.69;5030890;28;20395;-75
2023/03/03 08:18:33;;;;;;;92.35;45.97;;;4.60;99.90;;;3.61;100.00;97662.69;5030504;28;20889;-75
2023/03/03 08:21:01;;;;;;;86.25;45.83;;;4.70;99.90;;;3.60;100.00;97668.97;5030886;28;20557;-74
2023/03/03 08:23:27;;;;;;;92.50;47.72;;;4.70;99.90;;;3.63;100.00;97663.31;5030472;28;20572;-75
2023/03/03 08:25:53;;;;;;;82.63;44.73;;;4.70;99.90;;;3.71;100.00;97663.13;5030560;28;20498;-74
2023/03/03 08:28:20;;;;;;;79.82;43.55;;;4.80;99.90;;;3.71;100.00;97664.91;5030617;28;20621;-73
2023/03/03 08:30:48;;;;;;;74.47;41.22;;;4.90;99.90;;;3.79;100.00;97662.09;5030732;28;20916;-74
2023/03/03 08:33:14;;;;;;;86.78;44.58;;;4.90;99.90;;;3.94;100.00;97661.91;5030358;28;20730;-74
2023/03/03 08:35:42;;;;;;;74.80;41.58;;;5.00;99.90;;;4.03;100.00;97661.50;5030598;28;20395;-74
2023/03/03 08:38:09;;;;;;;62.38;36.03;;;5.10;99.90;;;4.18;100.00;97658.66;5029233;22;20456;-77
2023/03/03 08:40:35;;;;;;;63.17;36.63;;;5.20;99.90;;;4.29;100.00;97655.41;5010696;28;20510;-79
2023/03/03 08:43:01;;;;;;;62.70;36.17;;;5.40;99.90;;;4.28;100.00;97659.06;5010172;28;20508;-79
2023/03/03 08:45:28;;;;;;;57.97;33.90;;;5.40;99.90;;;4.37;100.00;97655.19;5010621;28;20859;-78
2023/03/03 08:47:54;;;;;;;54.67;32.30;;;5.40;99.90;;;4.34;100.00;97647.78;5010533;28;20397;-78
2023/03/03 08:50:20;;;;;;;54.78;32.42;;;5.40;99.90;;;4.36;100.00;97658.06;5010541;28;20401;-76
2023/03/03 08:52:48;;;;;;;55.05;32.35;;;5.40;99.90;;;4.37;100.00;97665.69;5010154;28;20460;-79
2023/03/03 08:55:14;;;;;;;49.38;29.73;;;5.40;99.90;;;4.41;100.00;97660.84;5010522;28;20401;-77
2023/03/03 08:57:40;;;;;;;55.22;31.20;;;5.50;99.90;;;4.40;100.00;97664.47;5010482;28;20904;-79
2023/03/03 09:00:10;;;;;;;50.47;30.17;;;5.50;99.90;;;4.45;100.00;97667.28;5010396;28;20795;-79
2023/03/03 09:02:36;;;;;;;49.47;29.88;;;5.50;99.90;;;4.52;100.00;97670.69;5010041;28;20417;-79
2023/03/03 09:05:03;;;;;;;47.80;29.95;;;5.60;99.90;;;4.56;100.00;97672.72;5010380;28;20404;-78
2023/03/03 09:07:29;;;;;;;53.70;31.83;;;5.60;99.90;;;4.57;100.00;97684.81;5008945;28;20894;-78
2023/03/03 09:09:56;;;;;;;56.20;30.73;;;5.60;99.90;;;4.60;100.00;97681.75;5010388;28;20707;-77
2023/03/03 09:12:32;;;;;;;50.35;29.40;;;5.60;99.90;;;4.66;100.00;97680.16;5009936;28;20401;-79
2023/03/03 09:15:02;;;;;;;47.65;28.58;;;5.70;99.90;;;4.74;100.00;97687.78;5010379;28;20503;-79
2023/03/03 09:17:32;;;;;;;51.03;29.27;;;5.80;99.90;;;4.79;100.00;97695.84;5010175;28;20886;-79
2023/03/03 09:20:10;;;;;;;51.95;30.70;;;5.80;99.90;;;4.86;100.00;97703.69;5008851;28;20409;-79
2023/03/03 09:22:36;;;;;;;57.72;31.20;;;5.90;99.90;;;4.84;100.00;97693.41;5009803;28;20997;-79
2023/03/03 09:25:19;;;;;;;49.03;29.38;;;5.90;99.90;;;4.90;100.00;97699.63;5010255;28;20400;-78
2023/03/03 09:27:45;;;;;;;48.28;29.40;;;5.90;99.90;;;4.94;100.00;97700.84;5010106;28;20472;-78
2023/03/03 09:30:33;;;;;;;52.35;29.70;;;6.00;99.90;;;5.01;100.00;97705.06;5010180;28;20886;-79
2023/03/03 09:32:59;;;;;;;55.15;31.08;;;6.10;99.90;;;5.05;100.00;97703.63;5009908;28;20462;-78
2023/03/03 09:35:36;;;;;;;49.13;28.73;;;6.10;99.90;;;5.14;100.00;97706.00;5008865;28;20451;-79
2023/03/03 09:38:23;;;;;;;50.35;29.00;;;6.20;99.90;;;5.21;100.00;97704.97;5009913;28;20459;-78
2023/03/03 09:41:19;;;;;;;46.97;28.20;;;6.30;99.90;;;5.42;100.00;97709.91;5010033;28;20938;-78
2023/03/03 09:44:04;;;;;;;43.92;26.67;;;6.40;99.90;;;5.79;100.00;97705.63;5009618;28;20425;-78
2023/03/03 09:46:38;;;;;;;47.43;28.93;;;6.70;99.90;;;5.98;100.00;97697.88;5009939;28;20400;-78
2023/03/03 09:49:18;;;;;;;46.75;28.50;;;7.00;99.90;;;6.15;100.00;97696.31;5009976;28;20959;-78
2023/03/03 09:52:16;;;;;;;48.42;29.02;;;7.20;99.90;;;6.45;100.00;97692.00;5009698;28;20412;-78
2023/03/03 09:55:05;;;;;;;49.88;29.65;;;7.40;99.90;;;6.62;100.00;97697.47;5010520;28;20404;-78
2023/03/03 09:57:50;;;;;;;39.95;25.20;;;7.60;99.90;;;6.79;100.00;97692.47;5013700;28;20415;-78
2023/03/03 10:00:35;;;;;;;51.78;29.75;;;7.70;99.90;;;6.89;100.00;97698.03;5013761;28;20490;-78
2023/03/03 10:03:25;;;;;;;59.20;31.40;;;7.90;99.90;;;6.86;100.00;97694.00;5013418;28;20504;-78
2023/03/03 10:05:58;;;;;;;46.38;27.88;;;7.80;99.90;;;7.03;100.00;97690.78;5013546;28;20458;-78
2023/03/03 10:08:44;;;;;;;44.42;28.00;;;8.00;99.90;;;7.07;100.00;97703.25;5013376;28;20409;-78
2023/03/03 10:11:22;;;;;;;52.58;30.50;;;8.10;99.90;;;7.08;100.00;97701.44;5013369;28;20443;-78
2023/03/03 10:14:23;;;;;;;41.53;26.73;;;8.00;99.90;;;7.29;100.00;97701.00;5013362;28;20497;-78
2023/03/03 10:17:21;;;;;;;38.47;23.63;;;8.30;99.90;;;7.72;100.00;97695.53;5013150;28;20401;-78